Time;durP1;ratioP1;P1;durP2;ratioP2;P2;SDS_P1;SDS_P2;PMS_P1;PMS_P2;Temp;Humidity;BMP_temperature;BMP_pressure;BME280_temperature;BME280_humidity;BME280_pressure;Samples;Min_cycle;Max_cycle;Signal;HPM_P1;HPM_P2
2021/04/25 00:01:14;;;;;;;11.60;4.67;;;6.90;67.70;;;;;;5053822;28;20033;-71
2021/04/25 00:03:40;;;;;;;12.43;4.70;;;7.00;68.30;;;;;;5036354;28;20388;-71
2021/04/25 00:06:06;;;;;;;13.63;4.77;;;7.00;68.30;;;;;;5032698;28;20087;-71
2021/04/25 00:08:32;;;;;;;12.60;5.37;;;7.00;67.90;;;;;;5049174;28;20041;-71
2021/04/25 00:10:59;;;;;;;8.77;3.90;;;7.00;67.80;;;;;;5032930;28;20064;-71
2021/04/25 00:13:25;;;;;;;10.87;4.70;;;7.10;68.10;;;;;;5042319;28;20029;-70
2021/04/25 00:15:51;;;;;;;10.10;4.87;;;7.10;67.90;;;;;;5052832;28;20028;-71
2021/04/25 00:18:16;;;;;;;10.97;4.93;;;7.10;68.50;;;;;;5053421;28;20519;-71
2021/04/25 00:20:43;;;;;;;13.90;5.07;;;7.20;67.90;;;;;;5053730;28;20380;-71
2021/04/25 00:23:08;;;;;;;11.97;4.50;;;7.20;68.10;;;;;;5052722;28;20032;-71
2021/04/25 00:25:34;;;;;;;10.97;4.90;;;7.20;68.00;;;;;;5052516;28;20381;-71
2021/04/25 00:27:59;;;;;;;10.57;4.73;;;7.20;67.70;;;;;;5053566;28;20051;-71
2021/04/25 00:30:25;;;;;;;8.80;3.40;;;7.20;67.70;;;;;;5053638;28;20033;-71
2021/04/25 00:32:51;;;;;;;13.37;4.47;;;7.20;67.70;;;;;;5053477;28;20079;-71
2021/04/25 00:35:18;;;;;;;9.97;4.17;;;7.30;67.80;;;;;;5053422;28;20059;-71
2021/04/25 00:37:45;;;;;;;10.53;3.40;;;7.30;67.80;;;;;;5052485;28;20488;-71
2021/04/25 00:40:13;;;;;;;11.57;4.30;;;7.30;67.70;;;;;;5053636;28;20033;-71
2021/04/25 00:42:39;;;;;;;9.63;3.67;;;7.30;67.80;;;;;;5053555;28;20098;-71
2021/04/25 00:45:12;;;;;;;9.10;4.03;;;7.30;67.70;;;;;;5053480;28;20036;-71
2021/04/25 00:47:38;;;;;;;13.33;4.70;;;7.30;67.50;;;;;;5052427;28;20021;-71
2021/04/25 00:50:05;;;;;;;13.80;4.70;;;7.30;67.50;;;;;;5053011;28;20025;-71
2021/04/25 00:52:33;;;;;;;10.97;4.43;;;7.20;67.50;;;;;;5035794;28;20444;-71
2021/04/25 00:54:59;;;;;;;8.70;3.90;;;7.20;67.50;;;;;;5053356;28;20040;-71
2021/04/25 00:57:25;;;;;;;13.37;4.80;;;7.20;67.70;;;;;;5053394;28;20021;-72
2021/04/25 00:59:53;;;;;;;9.47;4.67;;;7.10;68.10;;;;;;5053741;28;20473;-71
2021/04/25 01:02:19;;;;;;;9.97;4.40;;;7.10;68.10;;;;;;5052381;28;20392;-71
2021/04/25 01:04:45;;;;;;;9.07;4.27;;;6.90;68.00;;;;;;5051955;28;20079;-71
2021/04/25 01:07:10;;;;;;;9.70;4.77;;;6.90;68.10;;;;;;5052268;28;20045;-71
2021/04/25 01:09:36;;;;;;;10.30;4.10;;;6.80;68.20;;;;;;5053217;28;20025;-71
2021/04/25 01:12:02;;;;;;;13.47;4.33;;;6.70;68.30;;;;;;5052023;28;20029;-71
2021/04/25 01:14:27;;;;;;;8.93;4.33;;;6.60;68.30;;;;;;5051978;28;20033;-71
2021/04/25 01:16:53;;;;;;;11.53;4.20;;;6.50;68.40;;;;;;5053089;28;20059;-71
2021/04/25 01:19:19;;;;;;;12.47;4.47;;;6.50;68.50;;;;;;5053168;28;20032;-71
2021/04/25 01:21:44;;;;;;;10.93;4.43;;;6.40;68.50;;;;;;5053237;28;20078;-71
2021/04/25 01:24:10;;;;;;;10.50;4.27;;;6.40;68.50;;;;;;5053264;28;20077;-71
2021/04/25 01:26:36;;;;;;;12.13;4.20;;;6.30;68.70;;;;;;5053122;28;20111;-71
2021/04/25 01:29:02;;;;;;;10.67;4.33;;;6.30;68.90;;;;;;5052044;28;20044;-71
2021/04/25 01:31:27;;;;;;;10.03;3.63;;;6.20;68.90;;;;;;5053047;28;20021;-71
2021/04/25 01:33:53;;;;;;;10.67;3.83;;;6.20;69.10;;;;;;5052884;28;20105;-72
2021/04/25 01:36:19;;;;;;;9.83;3.60;;;6.30;69.20;;;;;;5052993;28;20028;-71
2021/04/25 01:38:45;;;;;;;11.53;4.50;;;6.20;69.20;;;;;;5052066;28;20032;-71
2021/04/25 01:41:11;;;;;;;12.53;4.53;;;6.20;69.40;;;;;;5051753;28;20119;-71
2021/04/25 01:43:36;;;;;;;10.00;3.73;;;6.10;69.50;;;;;;5035209;28;20100;-71
2021/04/25 01:46:02;;;;;;;10.50;3.30;;;6.10;69.20;;;;;;5052878;28;20033;-76
2021/04/25 01:48:28;;;;;;;5.67;2.90;;;6.10;69.10;;;;;;5053446;28;20021;-77
2021/04/25 01:50:53;;;;;;;9.83;3.90;;;6.10;69.00;;;;;;5053235;28;20044;-77
2021/04/25 01:53:19;;;;;;;8.33;3.27;;;6.00;68.90;;;;;;5052987;28;20048;-76
2021/04/25 01:55:44;;;;;;;9.60;3.50;;;6.00;69.00;;;;;;5051610;28;20025;-76
2021/04/25 01:58:11;;;;;;;9.83;3.53;;;6.00;69.10;;;;;;5051483;28;20127;-76
2021/04/25 02:00:45;;;;;;;9.47;3.23;;;5.90;69.10;;;;;;5051628;28;20021;-76
2021/04/25 02:03:12;;;;;;;9.35;2.85;;;5.90;69.10;;;;;;5055434;28;20029;-76
2021/04/25 02:05:39;;;;;;;7.53;2.93;;;5.90;69.70;;;;;;5058285;28;20130;-76
2021/04/25 02:08:07;;;;;;;10.70;3.37;;;5.90;69.20;;;;;;5058499;28;20082;-76
2021/04/25 02:10:33;;;;;;;11.93;3.80;;;5.80;69.30;;;;;;5076170;28;20150;-76
2021/04/25 02:12:59;;;;;;;6.97;3.60;;;5.90;69.50;;;;;;5076437;28;20107;-76
2021/04/25 02:15:26;;;;;;;7.10;2.87;;;5.80;69.50;;;;;;5076369;28;20541;-76
2021/04/25 02:17:51;;;;;;;8.40;2.40;;;5.80;70.40;;;;;;5076177;28;20107;-76
2021/04/25 02:20:19;;;;;;;8.83;2.67;;;5.80;69.70;;;;;;5076044;28;20122;-76
2021/04/25 02:22:45;;;;;;;9.70;3.03;;;5.80;69.70;;;;;;5076486;28;20396;-76
2021/04/25 02:25:12;;;;;;;7.93;2.90;;;5.80;70.10;;;;;;5076186;28;20037;-77
2021/04/25 02:27:39;;;;;;;6.57;2.57;;;5.80;69.40;;;;;;5076113;28;20040;-76
2021/04/25 02:30:10;;;;;;;7.23;2.60;;;5.80;69.80;;;;;;5075739;28;20066;-76
2021/04/25 02:32:36;;;;;;;6.97;2.60;;;5.80;69.50;;;;;;5075653;28;20103;-76
2021/04/25 02:35:06;;;;;;;9.63;3.00;;;5.70;69.50;;;;;;5075760;28;20025;-77
2021/04/25 02:37:32;;;;;;;10.10;2.90;;;5.70;69.60;;;;;;5076312;28;20021;-76
2021/04/25 02:39:58;;;;;;;10.30;2.83;;;5.70;69.40;;;;;;5057922;28;20070;-76
2021/04/25 02:42:24;;;;;;;10.23;3.17;;;5.60;69.60;;;;;;5075676;28;20362;-77
2021/04/25 02:44:49;;;;;;;8.97;2.70;;;5.70;69.70;;;;;;5057788;28;20043;-77
2021/04/25 02:47:15;;;;;;;9.57;2.43;;;5.70;69.80;;;;;;5057787;28;20109;-76
2021/04/25 02:49:40;;;;;;;10.57;2.73;;;5.70;69.70;;;;;;5057868;28;20082;-76
2021/04/25 02:52:06;;;;;;;7.87;2.73;;;5.70;69.60;;;;;;5057546;28;20037;-76
2021/04/25 02:54:33;;;;;;;8.67;2.60;;;5.70;69.60;;;;;;5075306;28;20032;-76
2021/04/25 02:56:59;;;;;;;9.53;2.60;;;5.70;69.50;;;;;;5075138;28;20036;-77
2021/04/25 02:59:25;;;;;;;9.07;2.50;;;5.70;69.60;;;;;;5075533;28;20134;-76
2021/04/25 03:01:51;;;;;;;8.97;2.87;;;5.70;69.40;;;;;;5057553;28;20067;-76
2021/04/25 03:04:17;;;;;;;7.77;2.10;;;5.80;69.40;;;;;;5075178;28;20028;-77
2021/04/25 03:06:42;;;;;;;9.37;2.63;;;5.80;69.20;;;;;;5075076;28;20514;-77
2021/04/25 03:09:08;;;;;;;10.80;2.63;;;5.80;69.20;;;;;;5074935;28;20032;-76
2021/04/25 03:11:34;;;;;;;7.27;2.03;;;5.80;69.20;;;;;;5074800;28;20036;-77
2021/04/25 03:13:59;;;;;;;6.73;2.33;;;5.80;69.00;;;;;;5056817;28;20024;-76
2021/04/25 03:16:25;;;;;;;10.13;2.53;;;5.80;68.90;;;;;;5075380;28;20111;-77
2021/04/25 03:18:51;;;;;;;8.30;2.63;;;5.80;68.90;;;;;;5056678;28;20024;-77
2021/04/25 03:21:16;;;;;;;8.00;2.23;;;5.80;68.80;;;;;;5057081;28;20054;-77
2021/04/25 03:23:42;;;;;;;8.03;2.60;;;5.90;68.90;;;;;;5054463;28;20029;-77
2021/04/25 03:26:07;;;;;;;10.77;2.50;;;5.90;69.00;;;;;;5036624;28;20039;-76
2021/04/25 03:28:33;;;;;;;7.20;2.40;;;5.90;68.80;;;;;;5036694;28;20473;-77
2021/04/25 03:30:59;;;;;;;8.37;2.70;;;5.90;68.70;;;;;;5047575;28;20037;-77
2021/04/25 03:33:24;;;;;;;6.43;2.27;;;6.00;68.60;;;;;;5074320;28;20419;-77
2021/04/25 03:35:50;;;;;;;8.27;2.30;;;6.00;68.50;;;;;;5055592;28;20039;-77
2021/04/25 03:38:16;;;;;;;8.03;2.37;;;6.00;68.30;;;;;;5074309;28;20028;-77
2021/04/25 03:40:42;;;;;;;6.63;2.43;;;6.00;68.90;;;;;;5074369;28;20033;-77
2021/04/25 03:43:08;;;;;;;5.83;2.13;;;6.00;68.20;;;;;;5056201;28;20032;-77
2021/04/25 03:45:34;;;;;;;7.07;2.20;;;6.10;68.20;;;;;;5073135;28;20052;-77
2021/04/25 03:47:59;;;;;;;12.70;2.60;;;6.10;68.10;;;;;;5073985;28;20462;-76
2021/04/25 03:50:27;;;;;;;9.63;2.50;;;6.10;68.00;;;;;;5074088;28;20037;-76
2021/04/25 03:52:53;;;;;;;8.20;1.83;;;6.10;67.90;;;;;;5074111;28;20055;-77
2021/04/25 03:55:21;;;;;;;8.07;2.20;;;6.10;68.40;;;;;;5074087;28;20036;-77
2021/04/25 03:57:48;;;;;;;7.17;2.57;;;6.20;67.70;;;;;;5055832;28;20382;-77
2021/04/25 04:00:15;;;;;;;8.43;2.03;;;6.20;67.50;;;;;;5072757;28;20036;-77
2021/04/25 04:02:41;;;;;;;7.93;2.03;;;6.20;67.40;;;;;;5054501;28;20037;-76
2021/04/25 04:05:08;;;;;;;6.83;2.13;;;6.20;67.40;;;;;;5072801;28;20036;-76
2021/04/25 04:07:33;;;;;;;6.83;2.30;;;6.20;67.20;;;;;;5071952;28;20583;-77
2021/04/25 04:09:59;;;;;;;7.13;1.93;;;6.20;67.20;;;;;;5055590;28;20123;-77
2021/04/25 04:12:25;;;;;;;8.27;2.30;;;6.20;67.00;;;;;;5073604;28;20044;-76
2021/04/25 04:14:50;;;;;;;6.70;1.60;;;6.30;67.00;;;;;;5055552;28;20104;-78
2021/04/25 04:17:17;;;;;;;5.27;2.07;;;6.30;66.90;;;;;;5055018;28;20032;-76
2021/04/25 04:19:42;;;;;;;8.33;1.90;;;6.30;66.90;;;;;;5073375;28;20029;-77
2021/04/25 04:22:08;;;;;;;6.53;1.70;;;6.30;66.80;;;;;;5073622;28;20056;-77
2021/04/25 04:24:34;;;;;;;6.27;2.00;;;6.40;66.70;;;;;;5054923;28;20031;-77
2021/04/25 04:26:59;;;;;;;8.23;1.80;;;6.40;66.80;;;;;;5055422;28;20129;-77
2021/04/25 04:29:27;;;;;;;7.63;1.83;;;6.50;66.70;;;;;;5055450;28;20036;-77
2021/04/25 04:31:53;;;;;;;6.80;1.67;;;6.50;66.60;;;;;;5056017;28;20465;-77
2021/04/25 04:34:18;;;;;;;8.90;2.43;;;6.40;66.40;;;;;;5073332;28;20036;-77
2021/04/25 04:36:44;;;;;;;10.20;2.13;;;6.50;66.30;;;;;;5073437;28;20036;-77
2021/04/25 04:39:10;;;;;;;5.97;1.90;;;6.50;66.20;;;;;;5055487;28;20064;-77
2021/04/25 04:41:35;;;;;;;6.60;1.50;;;6.50;66.20;;;;;;5073256;28;20115;-77
2021/04/25 04:44:01;;;;;;;4.93;1.63;;;6.60;66.00;;;;;;5022332;28;20081;-77
2021/04/25 04:46:27;;;;;;;5.17;1.67;;;6.60;65.80;;;;;;5055438;28;20024;-76
2021/04/25 04:48:52;;;;;;;6.93;2.20;;;6.50;65.60;;;;;;5052085;28;20041;-77
2021/04/25 04:51:18;;;;;;;7.47;1.70;;;6.60;65.60;;;;;;5052631;28;20064;-77
2021/04/25 04:53:44;;;;;;;8.40;2.00;;;6.60;65.40;;;;;;5051321;28;20373;-77
2021/04/25 04:56:09;;;;;;;5.23;1.73;;;6.60;65.40;;;;;;5018663;28;20086;-77
2021/04/25 04:58:35;;;;;;;7.93;1.90;;;6.60;66.00;;;;;;5053070;28;20103;-77
2021/04/25 05:01:01;;;;;;;5.33;1.37;;;6.60;65.90;;;;;;5035178;28;20037;-77
2021/04/25 05:03:26;;;;;;;9.20;1.50;;;6.60;65.20;;;;;;5034619;28;20037;-77
2021/04/25 05:05:52;;;;;;;4.40;1.23;;;6.70;65.30;;;;;;5018755;28;20037;-77
2021/04/25 05:08:17;;;;;;;8.30;1.60;;;6.70;65.10;;;;;;5053182;28;20064;-77
2021/04/25 05:10:43;;;;;;;7.90;1.50;;;6.70;65.00;;;;;;5035154;28;20079;-77
2021/04/25 05:13:10;;;;;;;7.30;1.40;;;6.70;64.80;;;;;;5035235;28;20534;-76
2021/04/25 05:15:40;;;;;;;9.33;1.60;;;6.70;64.80;;;;;;5018879;28;20384;-77
2021/04/25 05:18:06;;;;;;;8.17;1.57;;;6.70;64.50;;;;;;5052976;28;20389;-77
2021/04/25 05:20:32;;;;;;;6.57;1.63;;;6.70;64.30;;;;;;5052941;28;20075;-76
2021/04/25 05:22:59;;;;;;;8.83;2.07;;;6.80;64.20;;;;;;5052853;28;20421;-77
2021/04/25 05:25:24;;;;;;;7.93;1.80;;;6.70;64.00;;;;;;5052886;28;20044;-77
2021/04/25 05:27:50;;;;;;;8.80;1.90;;;6.80;64.10;;;;;;5034941;28;20473;-76
2021/04/25 05:30:16;;;;;;;6.83;1.83;;;6.80;64.10;;;;;;5034874;28;20491;-76
2021/04/25 05:32:42;;;;;;;7.50;1.63;;;6.80;63.80;;;;;;5035002;28;20025;-76
2021/04/25 05:35:08;;;;;;;6.20;1.53;;;6.90;63.70;;;;;;5052875;28;20025;-71
2021/04/25 05:37:34;;;;;;;9.03;1.50;;;6.90;63.70;;;;;;5056033;28;20111;-71
2021/04/25 05:40:00;;;;;;;10.63;1.87;;;6.90;63.70;;;;;;5038893;28;20567;-71
2021/04/25 05:42:25;;;;;;;7.10;1.33;;;6.90;63.60;;;;;;5038859;28;20017;-71
2021/04/25 05:44:51;;;;;;;4.20;1.33;;;6.90;63.40;;;;;;5038704;28;20036;-72
2021/04/25 05:47:17;;;;;;;9.77;1.97;;;6.90;63.20;;;;;;5056607;28;20108;-71
2021/04/25 05:49:43;;;;;;;7.37;1.60;;;7.00;63.20;;;;;;5038463;28;20076;-71
2021/04/25 05:52:09;;;;;;;9.60;1.60;;;7.00;63.10;;;;;;5056328;28;20041;-71
2021/04/25 05:54:35;;;;;;;8.23;1.50;;;7.00;62.90;;;;;;5056099;28;20108;-71
2021/04/25 05:57:00;;;;;;;12.07;1.57;;;7.00;63.10;;;;;;5038607;28;20550;-71
2021/04/25 05:59:26;;;;;;;13.87;2.63;;;7.10;63.00;;;;;;5038529;28;20033;-72
2021/04/25 06:01:52;;;;;;;11.13;1.97;;;7.10;62.90;;;;;;5021912;28;20037;-74
2021/04/25 06:04:17;;;;;;;9.03;1.50;;;7.10;63.20;;;;;;5021830;28;20029;-71
2021/04/25 06:06:43;;;;;;;6.77;1.33;;;7.10;62.30;;;;;;5055931;28;20516;-71
2021/04/25 06:09:09;;;;;;;4.50;1.20;;;7.10;62.20;;;;;;5056159;28;20040;-71
2021/04/25 06:11:35;;;;;;;7.27;1.47;;;7.10;62.00;;;;;;5056001;28;20041;-72
2021/04/25 06:14:01;;;;;;;8.70;1.67;;;7.20;62.00;;;;;;5055911;28;20029;-71
2021/04/25 06:16:27;;;;;;;5.93;1.40;;;7.20;62.30;;;;;;5021743;28;20167;-71
2021/04/25 06:18:53;;;;;;;10.13;1.73;;;7.20;61.60;;;;;;5021874;28;20115;-71
2021/04/25 06:21:21;;;;;;;6.83;1.53;;;7.20;61.90;;;;;;5038114;28;20029;-71
2021/04/25 06:23:46;;;;;;;6.77;1.70;;;7.40;61.80;;;;;;5038470;28;20036;-73
2021/04/25 06:26:12;;;;;;;11.57;1.80;;;7.30;61.80;;;;;;5037955;28;20048;-71
2021/04/25 06:28:38;;;;;;;8.53;1.50;;;7.30;61.80;;;;;;5038086;28;20038;-71
2021/04/25 06:31:03;;;;;;;6.13;1.13;;;7.30;61.80;;;;;;5037792;28;20040;-71
2021/04/25 06:33:29;;;;;;;8.23;1.50;;;7.40;61.80;;;;;;5037882;28;20040;-71
2021/04/25 06:35:55;;;;;;;6.40;1.80;;;7.40;61.60;;;;;;5055671;28;20048;-71
2021/04/25 06:38:20;;;;;;;6.63;1.43;;;7.50;61.40;;;;;;5054190;28;20069;-71
2021/04/25 06:40:46;;;;;;;7.43;1.33;;;7.50;61.60;;;;;;5055480;28;20032;-71
2021/04/25 06:43:12;;;;;;;3.87;1.20;;;7.60;61.40;;;;;;5037393;28;20071;-71
2021/04/25 06:45:37;;;;;;;12.07;1.70;;;7.60;61.00;;;;;;5055602;28;20074;-71
2021/04/25 06:48:04;;;;;;;6.30;1.30;;;7.60;61.40;;;;;;5054610;28;20180;-71
2021/04/25 06:50:30;;;;;;;8.97;1.80;;;7.70;61.10;;;;;;5037432;28;20029;-72
2021/04/25 06:52:55;;;;;;;7.70;1.20;;;7.70;60.80;;;;;;5055247;28;20131;-71
2021/04/25 06:55:23;;;;;;;9.07;1.40;;;7.80;60.90;;;;;;5037485;28;20163;-71
2021/04/25 06:57:50;;;;;;;5.97;1.70;;;7.80;60.90;;;;;;5055188;28;20025;-71
2021/04/25 07:00:19;;;;;;;7.03;1.57;;;7.80;60.30;;;;;;5055232;28;20032;-71
2021/04/25 07:02:45;;;;;;;6.20;1.03;;;7.80;60.40;;;;;;5037179;28;20056;-71
2021/04/25 07:05:11;;;;;;;9.37;1.17;;;7.90;60.50;;;;;;5055017;28;20171;-71
2021/04/25 07:07:37;;;;;;;6.23;1.53;;;7.90;60.30;;;;;;5037014;28;20052;-71
2021/04/25 07:10:04;;;;;;;8.70;1.37;;;8.10;60.50;;;;;;5054954;28;20029;-71
2021/04/25 07:12:30;;;;;;;5.37;1.30;;;8.10;60.40;;;;;;5054787;28;20516;-71
2021/04/25 07:14:57;;;;;;;4.70;1.17;;;8.20;60.00;;;;;;5054813;28;20036;-71
2021/04/25 07:17:23;;;;;;;5.47;1.27;;;8.20;59.80;;;;;;5053572;28;20057;-71
2021/04/25 07:19:49;;;;;;;8.30;0.97;;;8.20;59.70;;;;;;5054727;28;20383;-71
2021/04/25 07:22:15;;;;;;;7.50;1.03;;;8.30;59.80;;;;;;5054711;28;20093;-71
2021/04/25 07:24:40;;;;;;;10.43;1.03;;;8.40;59.80;;;;;;5020488;28;20044;-71
2021/04/25 07:27:06;;;;;;;4.30;0.80;;;8.40;59.90;;;;;;5020242;28;20032;-71
2021/04/25 07:29:31;;;;;;;4.57;0.73;;;8.50;59.60;;;;;;5036666;28;20461;-71
2021/04/25 07:31:58;;;;;;;7.30;0.80;;;8.50;59.20;;;;;;5036465;28;20473;-71
2021/04/25 07:34:24;;;;;;;8.17;1.40;;;8.50;59.20;;;;;;5036888;28;20056;-71
2021/04/25 07:36:50;;;;;;;6.57;1.00;;;8.60;59.30;;;;;;5036724;28;20033;-71
2021/04/25 07:39:16;;;;;;;6.07;0.90;;;8.70;59.10;;;;;;5036613;28;20090;-72
2021/04/25 07:41:42;;;;;;;9.00;1.30;;;8.70;58.70;;;;;;5054394;28;20033;-77
2021/04/25 07:44:08;;;;;;;5.60;0.83;;;8.80;58.40;;;;;;5054366;28;20119;-77
2021/04/25 07:46:33;;;;;;;5.97;0.90;;;8.80;58.40;;;;;;5036757;28;20400;-77
2021/04/25 07:49:00;;;;;;;9.33;1.00;;;8.90;58.50;;;;;;5036426;28;20538;-77
2021/04/25 07:51:25;;;;;;;5.80;0.97;;;9.00;58.20;;;;;;5054283;28;20534;-77
2021/04/25 07:53:53;;;;;;;3.67;0.70;;;9.00;58.10;;;;;;5036390;28;20049;-77
2021/04/25 07:56:19;;;;;;;9.73;0.80;;;9.00;58.40;;;;;;5053968;28;20033;-77
2021/04/25 07:58:44;;;;;;;9.50;0.83;;;9.20;58.50;;;;;;5053734;28;20025;-77
2021/04/25 08:01:10;;;;;;;4.37;0.80;;;9.20;57.90;;;;;;5035250;28;20508;-77
2021/04/25 08:03:36;;;;;;;7.70;0.80;;;9.30;57.80;;;;;;5053876;28;20025;-76
2021/04/25 08:06:03;;;;;;;8.27;1.20;;;9.40;57.80;;;;;;5035727;28;20044;-76
2021/04/25 08:08:28;;;;;;;5.40;1.00;;;9.50;57.40;;;;;;5036064;28;20033;-76
2021/04/25 08:10:54;;;;;;;8.57;1.43;;;9.40;56.90;;;;;;5053946;28;20029;-76
2021/04/25 08:13:20;;;;;;;8.80;1.10;;;9.50;56.70;;;;;;5035868;28;20029;-77
2021/04/25 08:15:45;;;;;;;8.23;0.80;;;9.50;57.10;;;;;;5036220;28;20084;-77
2021/04/25 08:18:11;;;;;;;7.77;1.30;;;9.50;57.30;;;;;;5053584;28;20033;-77
2021/04/25 08:20:36;;;;;;;10.83;1.23;;;9.50;56.90;;;;;;5035967;28;20025;-77
2021/04/25 08:23:02;;;;;;;5.87;0.83;;;9.50;56.10;;;;;;5053511;28;20025;-77
2021/04/25 08:25:28;;;;;;;4.70;0.90;;;9.50;55.90;;;;;;5053622;28;20538;-78
2021/04/25 08:27:54;;;;;;;5.17;0.60;;;9.50;56.20;;;;;;5035627;28;20017;-77
2021/04/25 08:30:21;;;;;;;3.90;0.77;;;9.60;56.50;;;;;;5053409;28;20037;-77
2021/04/25 08:32:47;;;;;;;5.00;0.80;;;9.60;55.80;;;;;;5035707;28;20382;-76
2021/04/25 08:35:13;;;;;;;7.97;0.90;;;9.70;55.60;;;;;;5053473;28;20024;-76
2021/04/25 08:37:39;;;;;;;5.70;2.03;;;9.80;55.60;;;;;;5053197;28;20017;-76
2021/04/25 08:40:06;;;;;;;4.03;0.63;;;9.90;55.30;;;;;;5053374;28;20032;-76
2021/04/25 08:42:32;;;;;;;5.47;0.70;;;9.90;55.20;;;;;;5052979;28;20025;-76
2021/04/25 08:44:59;;;;;;;4.77;0.80;;;10.00;54.80;;;;;;5035386;28;20031;-76
2021/04/25 08:47:28;;;;;;;5.63;1.03;;;10.10;54.70;;;;;;5053081;28;20024;-77
2021/04/25 08:49:58;;;;;;;5.07;0.70;;;10.20;54.50;;;;;;5035257;28;20091;-78
2021/04/25 08:52:25;;;;;;;4.53;0.70;;;10.20;54.10;;;;;;5053191;28;20547;-77
2021/04/25 08:54:52;;;;;;;7.87;1.13;;;10.30;53.60;;;;;;5053083;28;20104;-76
2021/04/25 08:57:18;;;;;;;5.80;1.47;;;10.30;53.40;;;;;;5052960;28;20045;-77
2021/04/25 08:59:43;;;;;;;2.30;0.50;;;10.30;53.40;;;;;;5052987;28;20444;-77
2021/04/25 09:02:09;;;;;;;7.83;1.10;;;10.40;53.00;;;;;;5052829;28;20546;-77
2021/04/25 09:04:35;;;;;;;5.70;0.70;;;10.40;52.90;;;;;;5035344;28;20368;-76
2021/04/25 09:07:05;;;;;;;2.97;0.50;;;10.40;53.10;;;;;;5018542;28;20076;-78
2021/04/25 09:09:46;;;;;;;9.17;0.80;;;10.60;52.90;;;;;;5035158;28;20083;-77
2021/04/25 09:12:15;;;;;;;8.43;0.77;;;10.60;52.90;;;;;;5055626;28;20029;-76
2021/04/25 09:14:41;;;;;;;6.83;0.90;;;10.70;52.60;;;;;;5057012;28;20041;-77
2021/04/25 09:17:07;;;;;;;8.07;1.07;;;10.80;52.60;;;;;;5039207;28;20399;-77
2021/04/25 09:19:58;;;;;;;6.63;0.90;;;11.00;52.70;;;;;;5057066;28;20112;-76
2021/04/25 09:22:45;;;;;;;4.63;0.67;;;11.00;51.80;;;;;;5057002;28;20544;-75
2021/04/25 09:25:18;;;;;;;11.33;0.97;;;11.10;51.60;;;;;;5056835;28;20025;-73
2021/04/25 09:27:47;;;;;;;7.00;0.80;;;11.10;51.60;;;;;;5039048;28;20029;-73
2021/04/25 09:30:26;;;;;;;5.03;0.70;;;11.20;51.80;;;;;;5056758;28;20025;-73
2021/04/25 09:33:04;;;;;;;5.37;0.83;;;11.20;51.60;;;;;;5056774;28;20055;-73
2021/04/25 09:35:30;;;;;;;4.33;0.90;;;11.30;51.40;;;;;;5022621;28;20123;-73
2021/04/25 09:37:55;;;;;;;7.07;0.80;;;11.40;51.00;;;;;;5038833;28;20064;-73
2021/04/25 09:40:23;;;;;;;5.13;0.80;;;11.40;50.80;;;;;;5056639;28;20120;-77
2021/04/25 09:43:10;;;;;;;8.00;0.87;;;11.50;50.60;;;;;;5056667;28;20507;-78
2021/04/25 09:45:37;;;;;;;4.87;0.80;;;11.60;50.70;;;;;;5038641;28;20472;-78
2021/04/25 09:48:21;;;;;;;4.80;0.80;;;11.70;50.50;;;;;;5056489;28;20028;-77
2021/04/25 09:51:18;;;;;;;3.17;0.60;;;11.90;50.20;;;;;;5056283;28;20112;-77
2021/04/25 09:53:49;;;;;;;6.68;0.80;;;12.00;50.30;;;;;;5038485;28;20484;-78
2021/04/25 09:56:17;;;;;;;3.35;0.65;;;12.20;50.10;;;;;;5056271;28;20031;-78
2021/04/25 09:58:58;;;;;;;7.80;1.65;;;12.30;50.10;;;;;;5038480;28;20075;-77
2021/04/25 10:01:31;;;;;;;7.25;1.10;;;12.40;49.40;;;;;;5038359;28;20366;-77
2021/04/25 10:03:58;;;;;;;3.95;0.65;;;12.50;49.30;;;;;;5055019;28;20031;-77
2021/04/25 10:06:25;;;;;;;6.38;0.80;;;12.50;49.50;;;;;;5055967;28;20399;-76
2021/04/25 10:08:51;;;;;;;8.43;1.00;;;12.60;49.30;;;;;;5056262;28;20104;-77
2021/04/25 10:11:19;;;;;;;7.68;0.70;;;12.70;48.50;;;;;;5038235;28;20111;-77
2021/04/25 10:13:46;;;;;;;7.40;0.70;;;12.80;48.30;;;;;;5055870;28;20104;-76
2021/04/25 10:16:13;;;;;;;6.82;1.20;;;12.90;48.10;;;;;;5038095;28;20076;-76
2021/04/25 10:18:38;;;;;;;4.85;0.70;;;13.00;47.90;;;;;;5055830;28;20029;-76
2021/04/25 10:21:04;;;;;;;9.30;0.90;;;12.90;47.00;;;;;;5055789;28;20355;-77
2021/04/25 10:23:30;;;;;;;5.88;0.98;;;13.00;47.50;;;;;;5036828;28;20029;-77
2021/04/25 10:25:56;;;;;;;4.40;0.68;;;13.10;48.00;;;;;;5021458;28;20533;-77
2021/04/25 10:28:27;;;;;;;6.20;1.05;;;13.20;47.80;;;;;;5038286;28;20104;-77
2021/04/25 10:31:00;;;;;;;7.53;0.98;;;13.40;47.40;;;;;;5055702;28;20025;-76
2021/04/25 10:33:57;;;;;;;5.45;0.75;;;13.40;47.30;;;;;;5055656;28;20099;-76
2021/04/25 10:36:23;;;;;;;5.22;1.08;;;13.50;47.10;;;;;;5055689;28;20443;-77
2021/04/25 10:38:49;;;;;;;6.25;1.33;;;13.60;46.90;;;;;;5037709;28;20029;-77
2021/04/25 10:41:26;;;;;;;9.35;1.20;;;13.60;46.30;;;;;;5055496;28;20090;-77
2021/04/25 10:44:08;;;;;;;6.28;0.80;;;13.60;46.10;;;;;;5055395;28;20108;-77
2021/04/25 10:46:52;;;;;;;4.50;0.60;;;13.80;46.60;;;;;;5055351;28;20091;-78
2021/04/25 10:49:28;;;;;;;5.45;0.70;;;14.30;46.30;;;;;;5055323;28;20029;-78
2021/04/25 10:51:54;;;;;;;5.45;0.88;;;14.60;45.80;;;;;;5055113;28;20060;-76
2021/04/25 10:54:19;;;;;;;8.57;1.23;;;14.80;44.90;;;;;;5055201;28;20414;-77
2021/04/25 10:57:06;;;;;;;9.25;0.80;;;15.00;44.90;;;;;;5037216;28;20465;-78
2021/04/25 10:59:32;;;;;;;4.57;0.60;;;15.30;44.40;;;;;;5055118;28;20361;-77
2021/04/25 11:01:59;;;;;;;4.32;0.70;;;15.50;44.50;;;;;;5055163;28;20108;-78
2021/04/25 11:04:55;;;;;;;9.25;1.02;;;15.60;44.40;;;;;;5037589;28;20029;-78
2021/04/25 11:07:43;;;;;;;3.58;0.80;;;15.60;43.70;;;;;;5037136;28;20128;-77
2021/04/25 11:10:10;;;;;;;6.53;1.17;;;15.60;41.80;;;;;;5036883;28;20063;-77
2021/04/25 11:12:37;;;;;;;4.60;0.80;;;15.80;42.70;;;;;;5054889;28;20408;-77
2021/04/25 11:15:04;;;;;;;6.93;0.93;;;16.50;42.20;;;;;;5054808;28;20029;-77
2021/04/25 11:17:30;;;;;;;4.82;0.63;;;17.10;42.20;;;;;;5054800;28;20025;-78
2021/04/25 11:19:57;;;;;;;5.85;0.60;;;17.90;42.20;;;;;;5020288;28;20025;-78
2021/04/25 11:22:42;;;;;;;5.75;0.80;;;18.70;42.20;;;;;;5054646;28;20047;-77
2021/04/25 11:25:32;;;;;;;4.72;0.70;;;19.60;40.80;;;;;;5054683;28;20025;-78
2021/04/25 11:27:58;;;;;;;6.43;0.82;;;20.00;39.40;;;;;;5036759;28;20033;-78
2021/04/25 11:30:38;;;;;;;5.90;0.73;;;20.40;37.90;;;;;;5054296;28;20495;-77
2021/04/25 11:33:33;;;;;;;6.55;0.80;;;20.90;37.30;;;;;;5036660;28;20031;-77
2021/04/25 11:36:37;;;;;;;4.90;0.90;;;21.50;37.00;;;;;;5054398;28;20021;-77
2021/04/25 11:39:04;;;;;;;7.43;0.73;;;22.10;35.00;;;;;;5020113;28;20049;-78
2021/04/25 11:41:30;;;;;;;5.15;0.70;;;22.60;35.60;;;;;;5036858;28;20021;-77
2021/04/25 11:43:56;;;;;;;4.55;1.00;;;23.10;35.40;;;;;;5054170;28;20048;-77
2021/04/25 11:46:33;;;;;;;3.75;1.05;;;23.80;35.10;;;;;;5036554;28;20033;-77
2021/04/25 11:49:02;;;;;;;4.88;0.80;;;24.50;32.10;;;;;;5054256;28;20021;-77
2021/04/25 11:51:29;;;;;;;6.50;0.98;;;25.00;31.90;;;;;;5054039;28;20028;-77
2021/04/25 11:53:56;;;;;;;5.00;0.70;;;25.10;30.40;;;;;;5036221;28;20104;-77
2021/04/25 11:56:32;;;;;;;4.93;0.68;;;25.10;30.00;;;;;;5053836;28;20546;-77
2021/04/25 11:59:08;;;;;;;5.00;0.50;;;25.10;29.90;;;;;;5053759;28;20029;-77
2021/04/25 12:01:35;;;;;;;4.55;0.68;;;25.10;28.80;;;;;;5053795;28;20099;-77
2021/04/25 12:04:00;;;;;;;4.05;0.60;;;24.70;28.60;;;;;;5052412;28;20378;-77
2021/04/25 12:06:26;;;;;;;4.07;0.75;;;24.10;28.70;;;;;;5017088;28;20056;-77
2021/04/25 12:08:53;;;;;;;6.40;0.90;;;23.80;28.90;;;;;;5053989;28;20037;-78
2021/04/25 12:11:27;;;;;;;4.18;0.60;;;24.00;29.20;;;;;;5053572;28;20069;-77
2021/04/25 12:13:53;;;;;;;5.38;0.77;;;24.30;29.10;;;;;;5035795;28;20032;-78
2021/04/25 12:16:21;;;;;;;5.53;0.70;;;24.60;29.00;;;;;;5053741;28;20037;-78
2021/04/25 12:18:48;;;;;;;4.13;0.60;;;24.90;29.00;;;;;;5053577;28;20025;-78
2021/04/25 12:21:16;;;;;;;3.60;0.52;;;25.00;29.00;;;;;;5019182;28;20505;-79
2021/04/25 12:23:55;;;;;;;5.10;0.77;;;25.20;29.20;;;;;;5053782;28;20025;-78
2021/04/25 12:26:24;;;;;;;3.90;0.88;;;25.60;28.30;;;;;;5053513;28;20032;-78
2021/04/25 12:28:56;;;;;;;4.50;0.73;;;26.00;28.30;;;;;;5053428;28;20048;-77
2021/04/25 12:31:23;;;;;;;3.95;0.80;;;26.20;28.10;;;;;;5053542;28;20043;-77
2021/04/25 12:33:56;;;;;;;2.67;0.70;;;26.40;27.60;;;;;;5035794;28;20053;-77
2021/04/25 12:36:28;;;;;;;3.67;0.77;;;26.50;27.40;;;;;;5035263;28;20013;-77
2021/04/25 12:38:58;;;;;;;5.68;0.85;;;26.60;27.10;;;;;;5053182;28;20025;-77
2021/04/25 12:41:24;;;;;;;5.38;0.93;;;26.80;26.90;;;;;;5035472;28;20476;-77
2021/04/25 12:43:54;;;;;;;5.13;0.60;;;26.90;27.20;;;;;;5053101;28;20115;-78
2021/04/25 12:46:25;;;;;;;4.68;0.73;;;27.00;27.20;;;;;;5052848;28;20162;-77
2021/04/25 12:48:50;;;;;;;5.43;0.70;;;27.10;26.80;;;;;;5053110;28;20037;-77
2021/04/25 12:51:19;;;;;;;4.47;0.68;;;27.10;26.70;;;;;;5051995;28;20413;-77
2021/04/25 12:53:59;;;;;;;4.38;0.82;;;27.10;26.40;;;;;;5052866;28;20346;-78
2021/04/25 12:56:28;;;;;;;5.70;0.60;;;27.10;26.80;;;;;;5053170;28;20021;-78